Time;durP1;ratioP1;P1;durP2;ratioP2;P2;SDS_P1;SDS_P2;PMS_P1;PMS_P2;Temp;Humidity;BMP_temperature;BMP_pressure;BME280_temperature;BME280_humidity;BME280_pressure;Samples;Min_cycle;Max_cycle;Signal;HPM_P1;HPM_P2
2023/02/10 00:01:22;;;;;;;21.90;11.05;;;;;;;;;;4998208;28;20464;-72
2023/02/10 00:03:48;;;;;;;20.85;11.27;;;;;;;;;;5031036;28;20037;-74
2023/02/10 00:06:15;;;;;;;21.77;11.23;;;;;;;;;;5030704;28;20033;-74
2023/02/10 00:08:41;;;;;;;21.95;11.18;;;;;;;;;;5028633;28;20148;-73
2023/02/10 00:11:09;;;;;;;22.90;11.02;;;;;;;;;;5030628;28;20030;-74
2023/02/10 00:13:36;;;;;;;16.67;10.38;;;;;;;;;;5028872;28;20017;-73
2023/02/10 00:16:03;;;;;;;21.42;10.98;;;;;;;;;;5029094;28;20037;-73
2023/02/10 00:18:30;;;;;;;20.70;11.65;;;;;;;;;;5029682;28;20029;-73
2023/02/10 00:20:57;;;;;;;21.33;11.30;;;;;;;;;;5031009;28;20025;-72
2023/02/10 00:23:23;;;;;;;22.23;10.93;;;;;;;;;;5030724;28;20068;-73
2023/02/10 00:25:49;;;;;;;21.85;11.00;;;;;;;;;;5030744;28;20025;-73
2023/02/10 00:28:15;;;;;;;19.75;10.95;;;;;;;;;;5029838;28;20049;-71
2023/02/10 00:30:41;;;;;;;20.02;10.88;;;;;;;;;;5030269;28;20034;-71
2023/02/10 00:33:07;;;;;;;19.42;10.40;;;;;;;;;;5030341;28;20072;-71
2023/02/10 00:35:33;;;;;;;26.40;11.00;;;;;;;;;;5030458;28;20610;-71
2023/02/10 00:37:59;;;;;;;23.75;11.05;;;;;;;;;;5030628;28;20036;-72
2023/02/10 00:40:25;;;;;;;19.58;11.10;;;;;;;;;;5033634;28;20109;-72
2023/02/10 00:42:51;;;;;;;23.75;12.75;;;;;;;;;;5033338;28;20444;-73
2023/02/10 00:45:17;;;;;;;20.23;10.43;;;;;;;;;;5028330;23;20065;-69
2023/02/10 00:47:43;;;;;;;21.00;11.00;;;;;;;;;;5025791;28;20515;-69
2023/02/10 00:50:09;;;;;;;20.65;11.50;;;;;;;;;;5024358;28;20025;-69
2023/02/10 00:52:35;;;;;;;19.67;11.20;;;;;;;;;;5032401;28;20022;-69
2023/02/10 00:55:02;;;;;;;27.33;11.30;;;;;;;;;;5017106;28;20018;-70
2023/02/10 00:57:28;;;;;;;25.70;12.38;;;;;;;;;;5032915;28;20030;-70
2023/02/10 00:59:54;;;;;;;20.23;11.70;;;;;;;;;;5031970;28;20499;-69
2023/02/10 01:02:20;;;;;;;25.25;11.98;;;;;;;;;;5033460;28;20029;-70
2023/02/10 01:04:46;;;;;;;23.45;12.10;;;;;;;;;;5033152;28;20380;-69
2023/02/10 01:07:12;;;;;;;20.40;10.55;;;;;;;;;;5032279;28;20029;-71
2023/02/10 01:09:39;;;;;;;20.55;10.65;;;;;;;;;;5033214;28;20028;-71
2023/02/10 01:12:05;;;;;;;23.58;11.57;;;;;;;;;;5033818;28;20041;-68
2023/02/10 01:14:31;;;;;;;22.02;11.55;;;;;;;;;;5033125;28;20053;-71
2023/02/10 01:16:57;;;;;;;19.25;10.77;;;;;;;;;;5032818;28;20113;-68
2023/02/10 01:19:23;;;;;;;22.70;10.43;;;;;;;;;;5031243;28;20502;-71
2023/02/10 01:21:49;;;;;;;19.88;11.07;;;;;;;;;;5032708;28;20025;-68
2023/02/10 01:24:15;;;;;;;20.50;11.00;;;;;;;;;;5032927;28;20029;-69
2023/02/10 01:26:42;;;;;;;17.85;10.60;;;;;;;;;;5032884;28;20033;-69
2023/02/10 01:29:08;;;;;;;19.30;10.40;;;;;;;;;;5031867;28;20060;-69
2023/02/10 01:31:34;;;;;;;17.63;9.98;;;;;;;;;;5032751;28;20082;-69
2023/02/10 01:34:00;;;;;;;19.83;10.65;;;;;;;;;;5032604;28;20083;-69
2023/02/10 01:36:26;;;;;;;21.98;11.32;;;;;;;;;;5031018;28;20072;-68
2023/02/10 01:38:52;;;;;;;18.63;10.80;;;;;;;;;;5031822;28;20136;-69
2023/02/10 01:41:20;;;;;;;21.75;10.35;;;;;;;;;;5032624;28;20499;-67
2023/02/10 01:43:59;;;;;;;23.02;11.57;;;;;;;;;;5032713;28;20029;-69
2023/02/10 01:46:26;;;;;;;21.60;11.02;;;;;;;;;;5032227;28;20030;-69
2023/02/10 01:48:52;;;;;;;22.42;12.50;;;;;;;;;;5030567;28;20025;-70
2023/02/10 01:51:20;;;;;;;20.48;11.82;;;;;;;;;;5031101;28;20361;-69
2023/02/10 01:53:46;;;;;;;23.55;12.32;;;;;;;;;;5032404;28;20502;-69
2023/02/10 01:56:15;;;;;;;25.50;12.82;;;;;;;;;;5032236;28;20037;-69
2023/02/10 01:58:41;;;;;;;21.67;11.40;;;;;;;;;;5031411;28;20037;-70
2023/02/10 02:01:07;;;;;;;24.70;13.43;;;;;;;;;;5030709;28;20155;-69
2023/02/10 02:03:34;;;;;;;23.05;13.00;;;;;;;;;;5032038;28;20527;-70
2023/02/10 02:06:00;;;;;;;19.92;11.68;;;;;;;;;;5031956;28;20056;-70
2023/02/10 02:08:28;;;;;;;21.08;11.73;;;;;;;;;;5031429;28;20468;-69
2023/02/10 02:11:12;;;;;;;23.40;12.20;;;;;;;;;;5031750;28;20113;-70
2023/02/10 02:13:57;;;;;;;20.55;11.98;;;;;;;;;;5032127;28;20025;-70
2023/02/10 02:16:32;;;;;;;22.02;11.98;;;;;;;;;;5032117;28;20034;-70
2023/02/10 02:19:16;;;;;;;25.63;12.55;;;;;;;;;;5030889;28;20029;-70
2023/02/10 02:22:11;;;;;;;22.92;12.57;;;;;;;;;;5031921;28;20499;-70
2023/02/10 02:24:37;;;;;;;20.05;11.13;;;;;;;;;;5031648;28;20033;-68
2023/02/10 02:27:14;;;;;;;26.05;11.98;;;;;;;;;;5031687;28;20031;-72
2023/02/10 02:29:59;;;;;;;21.55;11.73;;;;;;;;;;5032289;28;20393;-70
2023/02/10 02:32:30;;;;;;;20.48;11.00;;;;;;;;;;5032090;28;20064;-69
2023/02/10 02:35:05;;;;;;;23.73;12.25;;;;;;;;;;5031397;28;20329;-70
2023/02/10 02:37:36;;;;;;;21.05;11.23;;;;;;;;;;5031002;28;20031;-69
2023/02/10 02:40:02;;;;;;;19.48;10.90;;;;;;;;;;5030199;28;20029;-69
2023/02/10 02:42:29;;;;;;;19.73;10.95;;;;;;;;;;5031860;28;20464;-69
2023/02/10 02:45:01;;;;;;;21.25;11.38;;;;;;;;;;5030232;28;20439;-69
2023/02/10 02:47:39;;;;;;;20.85;11.48;;;;;;;;;;5031073;28;20496;-70
2023/02/10 02:50:05;;;;;;;22.83;12.23;;;;;;;;;;5032240;28;20025;-70
2023/02/10 02:52:52;;;;;;;23.27;12.43;;;;;;;;;;5030960;28;20099;-70
2023/02/10 02:55:29;;;;;;;26.80;12.70;;;;;;;;;;4997997;28;20021;-70
2023/02/10 02:57:59;;;;;;;23.90;12.38;;;;;;;;;;5029180;28;20111;-71
2023/02/10 03:00:28;;;;;;;24.10;11.88;;;;;;;;;;5031351;28;20036;-69
2023/02/10 03:02:54;;;;;;;19.65;10.82;;;;;;;;;;5031429;28;20025;-70
2023/02/10 03:05:23;;;;;;;21.50;12.00;;;;;;;;;;5031143;28;20430;-70
2023/02/10 03:07:49;;;;;;;25.23;13.93;;;;;;;;;;5030438;28;20056;-70
2023/02/10 03:10:15;;;;;;;19.88;12.10;;;;;;;;;;5031007;28;20026;-70
2023/02/10 03:12:41;;;;;;;20.23;11.15;;;;;;;;;;5031103;28;20160;-69
2023/02/10 03:15:08;;;;;;;21.38;11.48;;;;;;;;;;5031302;28;20369;-69
2023/02/10 03:17:34;;;;;;;19.98;10.90;;;;;;;;;;5030151;28;20036;-69
2023/02/10 03:20:00;;;;;;;21.50;11.00;;;;;;;;;;5030945;28;20034;-69
2023/02/10 03:22:26;;;;;;;23.20;12.40;;;;;;;;;;5030847;28;20484;-69
2023/02/10 03:24:51;;;;;;;21.63;10.65;;;;;;;;;;5032190;28;20044;-70
2023/02/10 03:27:18;;;;;;;22.05;11.50;;;;;;;;;;5005492;28;20146;-70
2023/02/10 03:29:44;;;;;;;23.27;11.73;;;;;;;;;;5038914;28;20152;-70
2023/02/10 03:32:10;;;;;;;25.05;12.55;;;;;;;;;;5037763;28;20087;-69
2023/02/10 03:34:36;;;;;;;23.20;11.80;;;;;;;;;;5032062;28;20033;-69
2023/02/10 03:37:02;;;;;;;21.10;11.05;;;;;;;;;;5030516;28;20124;-69
2023/02/10 03:39:28;;;;;;;21.17;12.27;;;;;;;;;;5030372;28;20057;-68
2023/02/10 03:41:54;;;;;;;22.38;12.15;;;;;;;;;;5030785;28;20037;-69
2023/02/10 03:44:20;;;;;;;23.50;13.52;;;;;;;;;;5030494;28;20036;-68
2023/02/10 03:46:46;;;;;;;22.83;12.15;;;;;;;;;;5030733;28;20029;-69
2023/02/10 03:49:12;;;;;;;24.92;11.85;;;;;;;;;;5030219;28;20084;-69
2023/02/10 03:51:38;;;;;;;23.38;11.73;;;;;;;;;;5029322;28;20018;-69
2023/02/10 03:54:04;;;;;;;20.90;11.20;;;;;;;;;;5030779;28;20037;-70
2023/02/10 03:56:30;;;;;;;21.95;11.38;;;;;;;;;;5031011;28;20033;-69
2023/02/10 03:58:56;;;;;;;23.85;12.70;;;;;;;;;;5029598;28;20056;-71
2023/02/10 04:01:22;;;;;;;22.25;12.13;;;;;;;;;;5031018;28;20053;-70
2023/02/10 04:03:48;;;;;;;21.65;12.57;;;;;;;;;;5030778;28;20032;-70
2023/02/10 04:06:14;;;;;;;24.98;12.90;;;;;;;;;;5028759;28;20041;-70
2023/02/10 04:08:41;;;;;;;23.65;13.05;;;;;;;;;;5029692;28;20033;-69
2023/02/10 04:11:09;;;;;;;22.50;12.73;;;;;;;;;;5030737;28;20392;-70
2023/02/10 04:13:35;;;;;;;27.15;13.52;;;;;;;;;;5034238;28;20026;-69
2023/02/10 04:16:08;;;;;;;24.95;12.90;;;;;;;;;;5032780;28;20396;-69
2023/02/10 04:18:35;;;;;;;22.38;12.35;;;;;;;;;;5034026;28;20077;-69
2023/02/10 04:21:01;;;;;;;22.98;12.38;;;;;;;;;;5034534;28;20536;-70
2023/02/10 04:23:27;;;;;;;26.83;12.80;;;;;;;;;;5034286;28;20044;-70
2023/02/10 04:25:53;;;;;;;25.77;12.57;;;;;;;;;;5033964;28;20025;-68
2023/02/10 04:28:20;;;;;;;23.75;12.02;;;;;;;;;;5033073;28;20032;-70
2023/02/10 04:30:46;;;;;;;21.20;12.10;;;;;;;;;;5033761;28;20033;-70
2023/02/10 04:33:12;;;;;;;25.85;13.23;;;;;;;;;;5033820;28;20055;-70
2023/02/10 04:35:38;;;;;;;24.17;13.07;;;;;;;;;;5033761;28;20475;-69
2023/02/10 04:38:04;;;;;;;25.27;13.98;;;;;;;;;;5033105;28;20121;-71
2023/02/10 04:40:30;;;;;;;24.25;13.13;;;;;;;;;;5033728;28;20045;-70
2023/02/10 04:42:56;;;;;;;26.05;14.73;;;;;;;;;;5033451;28;20048;-70
2023/02/10 04:45:22;;;;;;;25.63;13.57;;;;;;;;;;5033350;28;20063;-70
2023/02/10 04:47:48;;;;;;;25.35;14.77;;;;;;;;;;5032829;28;20044;-70
2023/02/10 04:50:14;;;;;;;27.10;13.68;;;;;;;;;;5033539;28;20587;-70
2023/02/10 04:52:40;;;;;;;26.65;13.90;;;;;;;;;;5031905;28;20018;-70
2023/02/10 04:55:06;;;;;;;26.30;14.85;;;;;;;;;;5033416;28;20387;-71
2023/02/10 04:57:32;;;;;;;27.25;13.65;;;;;;;;;;5032712;28;20213;-70
2023/02/10 04:59:58;;;;;;;25.13;15.13;;;;;;;;;;5033580;28;20567;-71
2023/02/10 05:02:24;;;;;;;28.80;15.02;;;;;;;;;;5033437;28;20021;-71
2023/02/10 05:04:50;;;;;;;26.55;15.27;;;;;;;;;;5033190;28;20485;-71
2023/02/10 05:07:16;;;;;;;30.85;15.55;;;;;;;;;;5032289;28;20076;-72
2023/02/10 05:09:42;;;;;;;31.33;16.40;;;;;;;;;;5033223;28;20021;-72
2023/02/10 05:12:08;;;;;;;35.10;19.30;;;;;;;;;;5032908;28;20108;-70
2023/02/10 05:14:34;;;;;;;34.45;19.27;;;;;;;;;;5032962;28;20021;-69
2023/02/10 05:17:00;;;;;;;30.58;18.67;;;;;;;;;;5030561;28;20056;-68
2023/02/10 05:19:26;;;;;;;31.52;18.50;;;;;;;;;;5032541;28;20630;-70
2023/02/10 05:21:52;;;;;;;32.28;19.20;;;;;;;;;;5032922;28;20049;-70
2023/02/10 05:24:18;;;;;;;36.35;20.05;;;;;;;;;;5031404;28;20068;-70
2023/02/10 05:26:44;;;;;;;36.22;18.77;;;;;;;;;;5032768;28;20033;-69
2023/02/10 05:29:10;;;;;;;28.73;17.80;;;;;;;;;;5031919;28;20029;-70
2023/02/10 05:31:36;;;;;;;33.83;19.17;;;;;;;;;;5032818;28;20052;-69
2023/02/10 05:34:02;;;;;;;32.00;18.92;;;;;;;;;;5032798;28;20057;-70
2023/02/10 05:36:28;;;;;;;31.05;18.15;;;;;;;;;;5032435;28;20554;-70
2023/02/10 05:41:39;;;;;;;35.00;19.38;;;;;;;;;;5032537;28;20048;-70
2023/02/10 05:44:05;;;;;;;32.63;19.02;;;;;;;;;;5032500;28;20030;-69
2023/02/10 05:46:31;;;;;;;33.95;19.48;;;;;;;;;;5032053;28;20029;-69
2023/02/10 05:48:57;;;;;;;32.63;18.90;;;;;;;;;;5031090;28;20033;-70
2023/02/10 05:51:23;;;;;;;39.53;18.92;;;;;;;;;;5030876;28;20037;-70
2023/02/10 05:53:49;;;;;;;33.70;18.73;;;;;;;;;;5032235;28;20490;-69
2023/02/10 05:56:15;;;;;;;33.03;19.08;;;;;;;;;;5032134;28;20037;-70
2023/02/10 05:58:41;;;;;;;37.25;21.08;;;;;;;;;;5031207;28;20029;-70
2023/02/10 06:01:08;;;;;;;34.83;21.15;;;;;;;;;;5032288;28;20040;-70
2023/02/10 06:03:34;;;;;;;35.72;19.92;;;;;;;;;;5032183;28;20017;-71
2023/02/10 06:06:00;;;;;;;36.40;18.75;;;;;;;;;;5031678;28;20036;-70
2023/02/10 06:08:26;;;;;;;34.70;20.85;;;;;;;;;;5029775;28;20483;-70
2023/02/10 06:10:52;;;;;;;36.00;19.80;;;;;;;;;;5031714;28;20595;-70
2023/02/10 06:13:18;;;;;;;39.75;21.45;;;;;;;;;;5032021;28;20411;-68
2023/02/10 06:15:44;;;;;;;35.60;20.85;;;;;;;;;;5031877;28;20030;-70
2023/02/10 06:18:10;;;;;;;35.63;20.48;;;;;;;;;;5031109;28;20606;-71
2023/02/10 06:20:36;;;;;;;35.75;21.50;;;;;;;;;;5031834;28;20035;-70
2023/02/10 06:23:02;;;;;;;36.67;20.95;;;;;;;;;;5031838;28;20108;-70
2023/02/10 06:25:28;;;;;;;40.08;22.42;;;;;;;;;;5031272;28;20104;-71
2023/02/10 06:27:54;;;;;;;37.05;21.85;;;;;;;;;;5030751;28;20036;-71
2023/02/10 06:30:21;;;;;;;39.83;22.73;;;;;;;;;;5030385;28;20028;-69
2023/02/10 06:32:46;;;;;;;41.55;22.60;;;;;;;;;;5030039;28;20051;-69
2023/02/10 06:35:13;;;;;;;37.53;22.52;;;;;;;;;;5027743;28;20484;-71
2023/02/10 06:37:39;;;;;;;42.42;22.70;;;;;;;;;;5014317;28;20048;-70
2023/02/10 06:40:05;;;;;;;41.22;24.00;;;;;;;;;;5029040;28;20029;-70
2023/02/10 06:42:31;;;;;;;37.90;22.40;;;;;;;;;;5029825;28;20021;-70
2023/02/10 06:44:57;;;;;;;38.90;22.92;;;;;;;;;;5050092;22;20069;-69
2023/02/10 06:47:23;;;;;;;36.20;22.38;;;;;;;;;;5026430;28;20479;-69
2023/02/10 06:49:49;;;;;;;39.00;24.02;;;;;;;;;;5023461;28;20024;-70
2023/02/10 06:52:16;;;;;;;42.88;24.48;;;;;;;;;;5017510;28;20014;-69
2023/02/10 06:54:42;;;;;;;40.25;23.30;;;;;;;;;;5024723;28;20025;-70
2023/02/10 06:57:08;;;;;;;41.35;23.08;;;;;;;;;;5021811;28;20034;-68
2023/02/10 06:59:34;;;;;;;39.88;23.42;;;;;;;;;;5028999;28;20029;-69
2023/02/10 07:02:01;;;;;;;38.97;23.13;;;;;;;;;;5031004;28;20025;-68
2023/02/10 07:04:31;;;;;;;40.53;23.45;;;;;;;;;;5030931;28;20028;-69
2023/02/10 07:06:57;;;;;;;39.80;23.58;;;;;;;;;;5030354;28;20033;-69
2023/02/10 07:09:23;;;;;;;41.20;24.15;;;;;;;;;;5030411;28;20021;-71
2023/02/10 07:11:52;;;;;;;42.17;25.25;;;;;;;;;;5030458;28;20025;-71
2023/02/10 07:14:18;;;;;;;42.28;23.58;;;;;;;;;;5032089;28;20109;-69
2023/02/10 07:16:44;;;;;;;41.83;25.25;;;;;;;;;;5030264;28;20029;-69
2023/02/10 07:19:10;;;;;;;39.35;23.77;;;;;;;;;;5029677;28;20029;-70
2023/02/10 07:21:38;;;;;;;45.45;25.95;;;;;;;;;;5029818;28;20052;-70
2023/02/10 07:24:04;;;;;;;42.22;25.30;;;;;;;;;;5031748;28;20033;-70
2023/02/10 07:26:30;;;;;;;41.70;24.88;;;;;;;;;;5034491;28;20029;-69
2023/02/10 07:28:56;;;;;;;40.03;25.25;;;;;;;;;;5032715;28;20068;-69
2023/02/10 07:31:22;;;;;;;44.20;25.48;;;;;;;;;;5035941;28;20085;-70
2023/02/10 07:33:48;;;;;;;46.55;25.60;;;;;;;;;;5040551;28;20365;-71
2023/02/10 07:36:15;;;;;;;43.60;24.58;;;;;;;;;;5036740;28;20025;-70
2023/02/10 07:38:41;;;;;;;39.63;23.75;;;;;;;;;;5031368;28;20022;-72
2023/02/10 07:41:07;;;;;;;40.88;24.70;;;;;;;;;;5030527;28;20036;-72
2023/02/10 07:43:34;;;;;;;41.67;25.00;;;;;;;;;;5030592;28;20028;-72
2023/02/10 07:46:00;;;;;;;43.45;24.23;;;;;;;;;;5030362;28;20052;-73
2023/02/10 07:48:26;;;;;;;45.10;25.90;;;;;;;;;;5033395;28;20029;-70
2023/02/10 07:50:52;;;;;;;42.03;24.25;;;;;;;;;;5033024;28;20028;-71
2023/02/10 07:53:19;;;;;;;44.17;24.80;;;;;;;;;;5034304;28;20021;-70
2023/02/10 07:55:45;;;;;;;44.50;26.05;;;;;;;;;;5034536;28;20029;-74
2023/02/10 07:58:11;;;;;;;43.08;25.48;;;;;;;;;;5033091;28;20029;-73
2023/02/10 08:00:37;;;;;;;46.85;27.83;;;;;;;;;;5034131;28;20025;-71
2023/02/10 08:03:03;;;;;;;42.45;26.55;;;;;;;;;;5034210;28;20021;-73
2023/02/10 08:05:29;;;;;;;43.88;26.40;;;;;;;;;;5032805;28;20029;-73
2023/02/10 08:07:55;;;;;;;42.55;25.35;;;;;;;;;;5032066;28;20391;-72
2023/02/10 08:10:22;;;;;;;45.00;27.40;;;;;;;;;;5034041;28;20495;-73
2023/02/10 08:12:48;;;;;;;44.05;26.05;;;;;;;;;;5034578;28;20049;-74
2023/02/10 08:15:16;;;;;;;44.35;26.70;;;;;;;;;;5033896;28;20040;-73
2023/02/10 08:17:43;;;;;;;40.65;25.52;;;;;;;;;;5033251;28;20080;-72
2023/02/10 08:20:09;;;;;;;46.03;27.02;;;;;;;;;;5034095;28;20028;-73
2023/02/10 08:22:35;;;;;;;44.40;26.38;;;;;;;;;;5032475;28;20160;-72
2023/02/10 08:25:01;;;;;;;48.33;26.50;;;;;;;;;;5033886;28;20029;-70
2023/02/10 08:27:28;;;;;;;42.17;26.38;;;;;;;;;;5032966;28;20032;-70
2023/02/10 08:29:54;;;;;;;46.83;26.85;;;;;;;;;;5032588;28;20148;-70
2023/02/10 08:32:20;;;;;;;48.60;27.70;;;;;;;;;;5033681;28;20018;-70
2023/02/10 08:34:47;;;;;;;50.95;26.80;;;;;;;;;;5033320;28;20395;-73
2023/02/10 08:37:13;;;;;;;49.63;28.35;;;;;;;;;;5032719;28;20499;-69
2023/02/10 08:39:39;;;;;;;53.40;29.95;;;;;;;;;;5033593;28;20038;-69
2023/02/10 08:42:06;;;;;;;49.90;28.52;;;;;;;;;;5032098;28;20032;-70
2023/02/10 08:44:32;;;;;;;49.55;28.77;;;;;;;;;;5033584;28;20103;-71
2023/02/10 08:46:58;;;;;;;50.53;28.50;;;;;;;;;;5031691;28;20033;-71
2023/02/10 08:49:24;;;;;;;51.63;28.75;;;;;;;;;;5031021;28;20342;-71
2023/02/10 08:51:54;;;;;;;51.70;27.85;;;;;;;;;;5030643;28;20041;-70
2023/02/10 08:54:20;;;;;;;48.85;27.00;;;;;;;;;;5031433;28;20476;-71
2023/02/10 08:56:46;;;;;;;45.97;28.27;;;;;;;;;;5031408;28;20069;-72
2023/02/10 08:59:12;;;;;;;50.67;28.05;;;;;;;;;;5029018;28;20026;-71
2023/02/10 09:01:39;;;;;;;52.33;29.30;;;;;;;;;;5031620;28;20013;-71
2023/02/10 09:04:05;;;;;;;48.15;28.08;;;;;;;;;;5034128;28;20107;-72
2023/02/10 09:06:38;;;;;;;52.58;29.10;;;;;;;;;;5034473;28;20021;-71
2023/02/10 09:09:05;;;;;;;55.22;30.17;;;;;;;;;;5034107;28;20128;-72
2023/02/10 09:11:31;;;;;;;56.60;30.13;;;;;;;;;;5034567;28;20356;-72
2023/02/10 09:13:57;;;;;;;56.30;29.70;;;;;;;;;;5034344;28;20021;-71
2023/02/10 09:16:23;;;;;;;53.42;30.50;;;;;;;;;;5032558;28;20048;-72
2023/02/10 09:18:50;;;;;;;55.97;29.98;;;;;;;;;;5032079;28;20435;-71
2023/02/10 09:21:17;;;;;;;52.25;30.58;;;;;;;;;;5032679;28;20022;-71
2023/02/10 09:23:43;;;;;;;51.47;30.63;;;;;;;;;;5032859;28;20033;-72
2023/02/10 09:26:09;;;;;;;56.30;29.58;;;;;;;;;;5032302;28;20032;-72
2023/02/10 09:28:35;;;;;;;50.10;29.65;;;;;;;;;;5030540;28;20431;-70
2023/02/10 09:31:01;;;;;;;54.50;30.75;;;;;;;;;;5033174;28;20032;-72
2023/02/10 09:33:27;;;;;;;54.90;30.70;;;;;;;;;;5033598;28;20108;-71
2023/02/10 09:35:53;;;;;;;58.78;29.75;;;;;;;;;;5033495;28;20330;-71
2023/02/10 09:38:19;;;;;;;53.90;30.65;;;;;;;;;;5032527;28;20025;-71
2023/02/10 09:40:58;;;;;;;57.17;31.30;;;;;;;;;;5031481;28;20136;-71
2023/02/10 09:43:30;;;;;;;57.03;30.88;;;;;;;;;;5000601;28;20479;-71
2023/02/10 09:46:00;;;;;;;56.45;30.25;;;;;;;;;;5031870;28;20041;-72
2023/02/10 09:48:31;;;;;;;52.80;29.17;;;;;;;;;;5031522;28;20499;-72
2023/02/10 09:50:57;;;;;;;;;;;;;;;;;;5031501;28;20025;-71
2023/02/10 09:53:28;;;;;;;49.42;28.00;;;;;;;;;;5032074;28;20000;-72
2023/02/10 09:55:55;;;;;;;61.17;30.80;;;;;;;;;;5032213;28;20108;-71
2023/02/10 09:58:24;;;;;;;58.30;28.17;;;;;;;;;;5031322;28;20033;-71
2023/02/10 10:00:53;;;;;;;59.25;31.13;;;;;;;;;;5030474;28;20104;-72
2023/02/10 10:03:22;;;;;;;52.92;29.73;;;;;;;;;;5000072;28;20176;-71
2023/02/10 10:05:48;;;;;;;58.08;31.85;;;;;;;;;;5031834;28;20392;-71
2023/02/10 10:08:34;;;;;;;56.30;31.92;;;;;;;;;;5031754;28;20021;-71
2023/02/10 10:11:14;;;;;;;49.90;27.77;;;;;;;;;;5031325;28;20700;-70
2023/02/10 10:13:40;;;;;;;57.30;30.70;;;;;;;;;;5031812;28;20032;-71
2023/02/10 10:16:06;;;;;;;55.03;28.13;;;;;;;;;;5030530;28;20033;-72
2023/02/10 10:18:32;;;;;;;52.75;28.45;;;;;;;;;;5029583;28;20036;-73
2023/02/10 10:21:25;;;;;;;52.05;27.63;;;;;;;;;;5031423;28;20040;-72
2023/02/10 10:24:00;;;;;;;53.42;29.60;;;;;;;;;;5028034;28;20029;-72
2023/02/10 10:26:41;;;;;;;52.80;29.20;;;;;;;;;;5032773;28;20033;-70
2023/02/10 10:29:07;;;;;;;53.50;27.35;;;;;;;;;;5031325;28;20179;-72
2023/02/10 10:31:36;;;;;;;53.20;28.25;;;;;;;;;;5031494;28;20479;-70
2023/02/10 10:34:08;;;;;;;52.10;28.02;;;;;;;;;;5029769;28;20029;-70
2023/02/10 10:36:35;;;;;;;54.70;31.42;;;;;;;;;;5030792;28;20491;-70
2023/02/10 10:39:22;;;;;;;53.03;29.25;;;;;;;;;;5030340;28;20030;-70
2023/02/10 10:41:48;;;;;;;48.63;27.02;;;;;;;;;;5031249;28;20061;-70
2023/02/10 10:44:17;;;;;;;55.15;30.73;;;;;;;;;;5032277;28;20025;-71
2023/02/10 10:47:02;;;;;;;48.20;27.10;;;;;;;;;;5030854;28;20462;-71
2023/02/10 10:49:28;;;;;;;54.10;28.95;;;;;;;;;;4999817;28;20028;-71
2023/02/10 10:51:54;;;;;;;51.72;27.42;;;;;;;;;;5029675;28;20037;-71
2023/02/10 10:54:21;;;;;;;49.15;27.42;;;;;;;;;;5029811;28;20436;-69
2023/02/10 10:57:00;;;;;;;61.10;30.83;;;;;;;;;;5029445;28;20111;-73
2023/02/10 10:59:34;;;;;;;48.85;28.60;;;;;;;;;;4999418;28;20033;-69
2023/02/10 11:02:10;;;;;;;55.88;30.60;;;;;;;;;;5030965;28;20175;-68
2023/02/10 11:04:38;;;;;;;57.50;32.60;;;;;;;;;;5030886;28;20042;-70
2023/02/10 11:07:09;;;;;;;52.35;29.75;;;;;;;;;;5031409;28;20117;-71
2023/02/10 11:09:36;;;;;;;51.03;27.48;;;;;;;;;;5030998;28;20017;-70
2023/02/10 11:12:24;;;;;;;60.28;31.60;;;;;;;;;;5031375;28;20106;-71
2023/02/10 11:14:53;;;;;;;54.95;31.13;;;;;;;;;;5030285;28;20064;-70
2023/02/10 11:17:19;;;;;;;53.58;28.30;;;;;;;;;;5022643;28;20021;-72
2023/02/10 11:19:53;;;;;;;53.78;30.13;;;;;;;;;;5018240;28;20456;-71
2023/02/10 11:22:20;;;;;;;54.78;30.38;;;;;;;;;;5027119;28;20087;-70
2023/02/10 11:24:51;;;;;;;58.42;32.47;;;;;;;;;;5029208;28;20073;-71
2023/02/10 11:27:17;;;;;;;52.40;29.92;;;;;;;;;;5028580;28;20030;-72
2023/02/10 11:29:50;;;;;;;57.55;31.15;;;;;;;;;;5030290;28;20109;-71
2023/02/10 11:32:27;;;;;;;55.47;31.40;;;;;;;;;;5029711;28;20061;-74
2023/02/10 11:34:55;;;;;;;57.83;30.60;;;;;;;;;;5031866;28;20026;-71
2023/02/10 11:37:31;;;;;;;59.08;33.03;;;;;;;;;;5029403;28;20022;-71
2023/02/10 11:39:58;;;;;;;56.28;30.27;;;;;;;;;;5029333;28;20036;-71
2023/02/10 11:42:26;;;;;;;53.65;30.38;;;;;;;;;;5030504;28;20032;-73
2023/02/10 11:44:58;;;;;;;46.65;27.77;;;;;;;;;;5029500;28;20514;-72
2023/02/10 11:47:26;;;;;;;50.97;28.40;;;;;;;;;;5029890;28;20025;-72
2023/02/10 11:49:52;;;;;;;50.22;29.00;;;;;;;;;;5028458;28;20476;-70
2023/02/10 11:52:21;;;;;;;49.08;27.38;;;;;;;;;;5028788;28;20461;-71
2023/02/10 11:54:47;;;;;;;47.40;27.70;;;;;;;;;;5029435;28;20017;-71
2023/02/10 12:00:26;;;;;;;57.08;31.00;;;;;;;;;;5031457;28;20564;-71
2023/02/10 12:03:05;;;;;;;51.17;28.13;;;;;;;;;;5030150;28;20034;-72
2023/02/10 12:05:31;;;;;;;50.13;27.58;;;;;;;;;;5029297;28;20412;-72
2023/02/10 12:08:16;;;;;;;52.22;29.05;;;;;;;;;;5028092;28;20107;-71
2023/02/10 12:10:45;;;;;;;59.33;31.75;;;;;;;;;;5030864;28;20439;-70
2023/02/10 12:13:14;;;;;;;50.22;28.40;;;;;;;;;;5030583;28;20021;-71
2023/02/10 12:15:59;;;;;;;49.47;28.23;;;;;;;;;;5027673;28;20074;-70
2023/02/10 12:18:28;;;;;;;50.60;28.55;;;;;;;;;;5027790;28;20053;-70
2023/02/10 12:21:03;;;;;;;52.95;29.23;;;;;;;;;;5028714;28;20026;-70
2023/02/10 12:23:58;;;;;;;59.80;30.90;;;;;;;;;;5028670;28;20420;-70
2023/02/10 12:26:38;;;;;;;54.25;28.58;;;;;;;;;;5011452;28;20033;-72
2023/02/10 12:29:19;;;;;;;47.40;26.20;;;;;;;;;;5028315;28;20182;-71
2023/02/10 12:32:08;;;;;;;51.40;28.73;;;;;;;;;;5030760;28;20017;-71
2023/02/10 12:34:46;;;;;;;53.95;27.55;;;;;;;;;;5020491;28;20060;-70
2023/02/10 12:37:19;;;;;;;50.80;30.23;;;;;;;;;;5034131;28;20022;-71
2023/02/10 12:40:04;;;;;;;44.78;26.45;;;;;;;;;;5035051;28;20025;-71
2023/02/10 12:42:39;;;;;;;54.17;28.00;;;;;;;;;;5034290;28;20450;-73
2023/02/10 12:47:42;;;;;;;48.78;26.75;;;;;;;;;;4991797;28;20074;-71
2023/02/10 12:50:27;;;;;;;46.83;27.00;;;;;;;;;;4992939;28;20110;-70
2023/02/10 12:52:59;;;;;;;52.45;28.05;;;;;;;;;;4994512;28;20023;-70
2023/02/10 12:55:33;;;;;;;48.60;26.83;;;;;;;;;;4994362;28;20027;-71
2023/02/10 12:58:02;;;;;;;52.25;26.75;;;;;;;;;;4993569;28;20493;-71
2023/02/10 13:00:37;;;;;;;46.53;25.52;;;;;;;;;;4994324;28;20034;-72
2023/02/10 13:03:15;;;;;;;44.85;26.20;;;;;;;;;;4994599;28;20507;-71
2023/02/10 13:05:59;;;;;;;49.63;27.25;;;;;;;;;;4994304;28;20034;-71
2023/02/10 13:08:36;;;;;;;39.70;22.80;;;;;;;;;;4993792;28;20023;-72
2023/02/10 13:11:15;;;;;;;46.22;24.88;;;;;;;;;;5009298;28;20121;-70
2023/02/10 13:13:43;;;;;;;52.10;27.23;;;;;;;;;;4994128;28;20073;-71
2023/02/10 13:16:09;;;;;;;43.47;24.60;;;;;;;;;;4993995;28;20086;-71
2023/02/10 13:18:51;;;;;;;45.15;26.23;;;;;;;;;;4992975;28;20031;-70
2023/02/10 13:21:26;;;;;;;49.00;24.92;;;;;;;;;;4993747;28;20142;-72
2023/02/10 13:23:52;;;;;;;43.47;23.33;;;;;;;;;;4994141;28;20041;-68
2023/02/10 13:26:24;;;;;;;43.88;24.88;;;;;;;;;;4993563;28;20093;-71
2023/02/10 13:28:57;;;;;;;48.00;24.02;;;;;;;;;;4992983;28;20516;-70
2023/02/10 13:31:26;;;;;;;42.15;23.85;;;;;;;;;;5010219;28;20030;-71
2023/02/10 13:34:01;;;;;;;40.30;22.55;;;;;;;;;;4975176;28;20026;-69
2023/02/10 13:36:30;;;;;;;45.45;24.63;;;;;;;;;;4974320;28;20031;-70
2023/02/10 13:39:14;;;;;;;45.33;24.15;;;;;;;;;;4973413;28;20038;-71
2023/02/10 13:41:42;;;;;;;42.97;22.67;;;;;;;;;;4972656;28;20023;-71
2023/02/10 13:44:23;;;;;;;40.38;21.95;;;;;;;;;;4973725;28;20027;-73
2023/02/10 13:46:54;;;;;;;37.60;22.15;;;;;;;;;;4979929;28;20121;-71
2023/02/10 13:49:22;;;;;;;45.28;22.83;;;;;;;;;;4982509;28;20027;-70
2023/02/10 13:51:49;;;;;;;36.40;20.65;;;;;;;;;;4983833;28;20433;-71
2023/02/10 13:54:25;;;;;;;41.30;21.95;;;;;;;;;;4980438;28;20477;-70
2023/02/10 13:56:55;;;;;;;35.92;20.92;;;;;;;;;;4974226;28;20093;-70
2023/02/10 13:59:24;;;;;;;39.83;21.25;;;;;;;;;;4973437;28;20027;-71
2023/02/10 14:02:01;;;;;;;42.15;20.52;;;;;;;;;;4974572;28;20026;-69
2023/02/10 14:04:38;;;;;;;34.92;19.48;;;;;;;;;;4974258;28;20105;-70
2023/02/10 14:07:13;;;;;;;33.72;19.20;;;;;;;;;;4973434;28;20081;-70
2023/02/10 14:09:39;;;;;;;33.20;18.40;;;;;;;;;;4973933;28;20058;-69
2023/02/10 14:12:22;;;;;;;32.95;17.92;;;;;;;;;;4973965;28;20073;-71
2023/02/10 14:14:49;;;;;;;33.10;18.55;;;;;;;;;;4973592;28;20370;-71
2023/02/10 14:17:21;;;;;;;34.08;17.70;;;;;;;;;;4972870;28;20029;-73
2023/02/10 14:19:51;;;;;;;32.65;17.02;;;;;;;;;;4973859;28;20031;-71
2023/02/10 14:22:26;;;;;;;32.03;17.55;;;;;;;;;;4973431;28;20080;-71
2023/02/10 14:24:54;;;;;;;30.13;15.75;;;;;;;;;;4973387;28;20485;-71
2023/02/10 14:27:21;;;;;;;32.58;17.80;;;;;;;;;;4972561;28;20500;-71
2023/02/10 14:29:49;;;;;;;32.30;17.05;;;;;;;;;;4973421;28;20027;-72
2023/02/10 14:32:19;;;;;;;27.15;12.93;;;;;;;;;;4988457;28;20396;-71
2023/02/10 14:34:59;;;;;;;30.38;14.35;;;;;;;;;;4992494;28;20026;-71
2023/02/10 14:37:25;;;;;;;40.35;14.88;;;;;;;;;;4990069;28;20030;-71